sensor_id;sensor_type;location;lat;lon;timestamp;P1;durP1;ratioP1;P2;durP2;ratioP2
85342;SDS011;75760;31.390;34.904;2024-01-30T00:01:39;8.90;;;4.83;;
85342;SDS011;75760;31.390;34.904;2024-01-30T00:04:05;8.27;;;5.13;;
85342;SDS011;75760;31.390;34.904;2024-01-30T00:06:30;9.97;;;4.77;;
85342;SDS011;75760;31.390;34.904;2024-01-30T00:08:56;10.35;;;5.10;;
85342;SDS011;75760;31.390;34.904;2024-01-30T00:11:22;11.80;;;5.50;;
85342;SDS011;75760;31.390;34.904;2024-01-30T00:13:50;13.38;;;5.47;;
85342;SDS011;75760;31.390;34.904;2024-01-30T00:16:20;9.30;;;5.90;;
85342;SDS011;75760;31.390;34.904;2024-01-30T00:18:47;12.00;;;5.60;;
85342;SDS011;75760;31.390;34.904;2024-01-30T00:21:13;10.23;;;5.57;;
85342;SDS011;75760;31.390;34.904;2024-01-30T00:23:39;10.20;;;6.00;;
85342;SDS011;75760;31.390;34.904;2024-01-30T00:26:05;12.13;;;6.40;;
85342;SDS011;75760;31.390;34.904;2024-01-30T00:28:31;11.38;;;5.63;;
85342;SDS011;75760;31.390;34.904;2024-01-30T00:30:56;12.90;;;6.20;;
85342;SDS011;75760;31.390;34.904;2024-01-30T00:33:22;11.98;;;6.20;;
85342;SDS011;75760;31.390;34.904;2024-01-30T00:35:47;13.17;;;6.00;;
85342;SDS011;75760;31.390;34.904;2024-01-30T00:38:13;11.20;;;6.03;;
85342;SDS011;75760;31.390;34.904;2024-01-30T00:40:39;10.20;;;5.80;;
85342;SDS011;75760;31.390;34.904;2024-01-30T00:43:04;9.33;;;5.80;;
85342;SDS011;75760;31.390;34.904;2024-01-30T00:45:30;9.70;;;6.18;;
85342;SDS011;75760;31.390;34.904;2024-01-30T00:47:56;13.15;;;6.80;;
85342;SDS011;75760;31.390;34.904;2024-01-30T00:50:22;15.03;;;6.90;;
85342;SDS011;75760;31.390;34.904;2024-01-30T00:52:47;15.50;;;7.53;;
85342;SDS011;75760;31.390;34.904;2024-01-30T00:55:13;13.37;;;7.23;;
85342;SDS011;75760;31.390;34.904;2024-01-30T00:57:39;15.10;;;7.30;;
85342;SDS011;75760;31.390;34.904;2024-01-30T01:00:05;14.13;;;8.02;;
85342;SDS011;75760;31.390;34.904;2024-01-30T01:02:34;16.30;;;7.80;;
85342;SDS011;75760;31.390;34.904;2024-01-30T01:05:00;17.65;;;7.53;;
85342;SDS011;75760;31.390;34.904;2024-01-30T01:07:25;19.05;;;8.02;;
85342;SDS011;75760;31.390;34.904;2024-01-30T01:09:51;13.53;;;7.67;;
85342;SDS011;75760;31.390;34.904;2024-01-30T01:12:16;17.83;;;8.03;;
85342;SDS011;75760;31.390;34.904;2024-01-30T01:14:42;13.93;;;7.53;;
85342;SDS011;75760;31.390;34.904;2024-01-30T01:17:07;12.80;;;7.17;;
85342;SDS011;75760;31.390;34.904;2024-01-30T01:19:33;16.35;;;7.13;;
85342;SDS011;75760;31.390;34.904;2024-01-30T01:21:59;21.50;;;7.83;;
85342;SDS011;75760;31.390;34.904;2024-01-30T01:24:24;13.27;;;8.10;;
85342;SDS011;75760;31.390;34.904;2024-01-30T01:26:50;14.38;;;7.40;;
85342;SDS011;75760;31.390;34.904;2024-01-30T01:29:15;16.03;;;8.20;;
85342;SDS011;75760;31.390;34.904;2024-01-30T01:31:41;15.32;;;8.00;;
85342;SDS011;75760;31.390;34.904;2024-01-30T01:34:10;16.90;;;7.60;;
85342;SDS011;75760;31.390;34.904;2024-01-30T01:36:36;12.73;;;7.57;;
85342;SDS011;75760;31.390;34.904;2024-01-30T01:39:01;13.30;;;7.95;;
85342;SDS011;75760;31.390;34.904;2024-01-30T01:41:30;15.70;;;7.30;;
85342;SDS011;75760;31.390;34.904;2024-01-30T01:43:57;14.23;;;7.23;;
85342;SDS011;75760;31.390;34.904;2024-01-30T01:46:23;15.02;;;6.90;;
85342;SDS011;75760;31.390;34.904;2024-01-30T01:48:50;14.75;;;7.05;;
85342;SDS011;75760;31.390;34.904;2024-01-30T01:51:15;18.73;;;8.43;;
85342;SDS011;75760;31.390;34.904;2024-01-30T01:53:41;15.80;;;7.28;;
85342;SDS011;75760;31.390;34.904;2024-01-30T01:56:07;16.35;;;7.30;;
85342;SDS011;75760;31.390;34.904;2024-01-30T01:58:33;17.15;;;7.35;;
85342;SDS011;75760;31.390;34.904;2024-01-30T02:01:00;13.13;;;6.95;;
85342;SDS011;75760;31.390;34.904;2024-01-30T02:03:27;19.57;;;7.20;;
85342;SDS011;75760;31.390;34.904;2024-01-30T02:05:52;11.70;;;7.13;;
85342;SDS011;75760;31.390;34.904;2024-01-30T02:08:19;14.60;;;6.68;;
85342;SDS011;75760;31.390;34.904;2024-01-30T02:10:45;17.00;;;6.55;;
85342;SDS011;75760;31.390;34.904;2024-01-30T02:13:10;15.33;;;6.93;;
85342;SDS011;75760;31.390;34.904;2024-01-30T02:15:36;14.53;;;6.53;;
85342;SDS011;75760;31.390;34.904;2024-01-30T02:18:02;13.60;;;5.82;;
85342;SDS011;75760;31.390;34.904;2024-01-30T02:20:28;12.03;;;6.07;;
85342;SDS011;75760;31.390;34.904;2024-01-30T02:22:56;9.82;;;5.38;;
85342;SDS011;75760;31.390;34.904;2024-01-30T02:25:38;15.02;;;6.22;;
85342;SDS011;75760;31.390;34.904;2024-01-30T02:28:10;9.98;;;5.63;;
85342;SDS011;75760;31.390;34.904;2024-01-30T02:30:39;12.43;;;5.15;;
85342;SDS011;75760;31.390;34.904;2024-01-30T02:33:04;11.60;;;5.27;;
85342;SDS011;75760;31.390;34.904;2024-01-30T02:35:30;14.25;;;5.00;;
85342;SDS011;75760;31.390;34.904;2024-01-30T02:37:56;12.07;;;4.80;;
85342;SDS011;75760;31.390;34.904;2024-01-30T02:40:21;9.98;;;5.20;;
85342;SDS011;75760;31.390;34.904;2024-01-30T02:42:47;8.67;;;4.27;;
85342;SDS011;75760;31.390;34.904;2024-01-30T02:45:13;12.75;;;5.00;;
85342;SDS011;75760;31.390;34.904;2024-01-30T02:47:39;9.23;;;4.77;;
85342;SDS011;75760;31.390;34.904;2024-01-30T02:50:05;10.15;;;4.70;;
85342;SDS011;75760;31.390;34.904;2024-01-30T02:52:31;9.18;;;4.70;;
85342;SDS011;75760;31.390;34.904;2024-01-30T02:54:57;10.10;;;4.43;;
85342;SDS011;75760;31.390;34.904;2024-01-30T02:57:22;12.67;;;4.50;;
85342;SDS011;75760;31.390;34.904;2024-01-30T02:59:48;11.00;;;4.10;;
85342;SDS011;75760;31.390;34.904;2024-01-30T03:02:14;10.43;;;4.55;;
85342;SDS011;75760;31.390;34.904;2024-01-30T03:04:42;10.80;;;3.97;;
85342;SDS011;75760;31.390;34.904;2024-01-30T03:07:08;12.40;;;4.25;;
85342;SDS011;75760;31.390;34.904;2024-01-30T03:09:34;8.50;;;3.97;;
85342;SDS011;75760;31.390;34.904;2024-01-30T03:12:00;8.80;;;4.10;;
85342;SDS011;75760;31.390;34.904;2024-01-30T03:14:26;8.75;;;3.60;;
85342;SDS011;75760;31.390;34.904;2024-01-30T03:16:51;6.90;;;3.40;;
85342;SDS011;75760;31.390;34.904;2024-01-30T03:19:17;8.93;;;3.53;;
85342;SDS011;75760;31.390;34.904;2024-01-30T03:21:43;5.68;;;3.17;;
85342;SDS011;75760;31.390;34.904;2024-01-30T03:24:09;9.13;;;3.20;;
85342;SDS011;75760;31.390;34.904;2024-01-30T03:26:35;11.20;;;3.25;;
85342;SDS011;75760;31.390;34.904;2024-01-30T03:29:01;8.40;;;3.10;;
85342;SDS011;75760;31.390;34.904;2024-01-30T03:31:26;11.57;;;3.08;;
85342;SDS011;75760;31.390;34.904;2024-01-30T03:33:52;10.37;;;3.43;;
85342;SDS011;75760;31.390;34.904;2024-01-30T03:36:17;7.20;;;3.03;;
85342;SDS011;75760;31.390;34.904;2024-01-30T03:38:43;10.13;;;3.00;;
85342;SDS011;75760;31.390;34.904;2024-01-30T03:41:09;8.77;;;3.20;;
85342;SDS011;75760;31.390;34.904;2024-01-30T03:43:35;7.63;;;3.65;;
85342;SDS011;75760;31.390;34.904;2024-01-30T03:46:02;7.63;;;2.73;;
85342;SDS011;75760;31.390;34.904;2024-01-30T03:48:28;9.27;;;3.00;;
85342;SDS011;75760;31.390;34.904;2024-01-30T03:50:54;9.63;;;2.80;;
85342;SDS011;75760;31.390;34.904;2024-01-30T03:53:19;13.70;;;3.53;;
85342;SDS011;75760;31.390;34.904;2024-01-30T03:55:45;8.77;;;2.70;;
85342;SDS011;75760;31.390;34.904;2024-01-30T03:58:11;9.03;;;2.47;;
85342;SDS011;75760;31.390;34.904;2024-01-30T04:00:36;6.28;;;2.80;;
85342;SDS011;75760;31.390;34.904;2024-01-30T04:03:02;7.27;;;3.03;;
85342;SDS011;75760;31.390;34.904;2024-01-30T04:05:28;8.27;;;2.88;;
85342;SDS011;75760;31.390;34.904;2024-01-30T04:07:53;7.30;;;2.67;;
85342;SDS011;75760;31.390;34.904;2024-01-30T04:10:19;7.83;;;2.50;;
85342;SDS011;75760;31.390;34.904;2024-01-30T04:12:45;10.17;;;2.97;;
85342;SDS011;75760;31.390;34.904;2024-01-30T04:15:10;7.78;;;2.70;;
85342;SDS011;75760;31.390;34.904;2024-01-30T04:17:36;5.63;;;2.50;;
85342;SDS011;75760;31.390;34.904;2024-01-30T04:20:02;13.50;;;2.53;;
85342;SDS011;75760;31.390;34.904;2024-01-30T04:22:28;9.45;;;2.42;;
85342;SDS011;75760;31.390;34.904;2024-01-30T04:24:53;10.77;;;2.20;;
85342;SDS011;75760;31.390;34.904;2024-01-30T04:27:19;8.37;;;2.23;;
85342;SDS011;75760;31.390;34.904;2024-01-30T04:29:44;11.05;;;2.53;;
85342;SDS011;75760;31.390;34.904;2024-01-30T04:32:10;9.17;;;2.27;;
85342;SDS011;75760;31.390;34.904;2024-01-30T04:34:36;5.60;;;2.10;;
85342;SDS011;75760;31.390;34.904;2024-01-30T04:37:02;6.67;;;2.10;;
85342;SDS011;75760;31.390;34.904;2024-01-30T04:39:28;6.38;;;2.38;;
85342;SDS011;75760;31.390;34.904;2024-01-30T04:41:53;6.80;;;2.40;;
85342;SDS011;75760;31.390;34.904;2024-01-30T04:44:19;8.53;;;2.10;;
85342;SDS011;75760;31.390;34.904;2024-01-30T04:46:45;5.87;;;2.00;;
85342;SDS011;75760;31.390;34.904;2024-01-30T04:49:10;8.68;;;2.13;;
85342;SDS011;75760;31.390;34.904;2024-01-30T04:51:36;9.77;;;2.40;;
85342;SDS011;75760;31.390;34.904;2024-01-30T04:54:02;5.82;;;1.67;;
85342;SDS011;75760;31.390;34.904;2024-01-30T04:56:27;8.37;;;2.50;;
85342;SDS011;75760;31.390;34.904;2024-01-30T04:58:53;6.63;;;2.35;;
85342;SDS011;75760;31.390;34.904;2024-01-30T05:01:19;7.43;;;1.90;;
85342;SDS011;75760;31.390;34.904;2024-01-30T05:03:44;7.57;;;2.23;;
85342;SDS011;75760;31.390;34.904;2024-01-30T05:06:10;6.18;;;1.92;;
85342;SDS011;75760;31.390;34.904;2024-01-30T05:08:36;7.60;;;1.83;;
85342;SDS011;75760;31.390;34.904;2024-01-30T05:11:07;5.13;;;1.30;;
85342;SDS011;75760;31.390;34.904;2024-01-30T05:13:32;6.40;;;1.65;;
85342;SDS011;75760;31.390;34.904;2024-01-30T05:15:58;5.65;;;2.15;;
85342;SDS011;75760;31.390;34.904;2024-01-30T05:18:24;7.30;;;1.70;;
85342;SDS011;75760;31.390;34.904;2024-01-30T05:20:50;5.43;;;1.83;;
85342;SDS011;75760;31.390;34.904;2024-01-30T05:23:16;10.87;;;2.10;;
85342;SDS011;75760;31.390;34.904;2024-01-30T05:25:41;7.15;;;1.40;;
85342;SDS011;75760;31.390;34.904;2024-01-30T05:28:07;11.67;;;2.37;;
85342;SDS011;75760;31.390;34.904;2024-01-30T05:30:33;4.90;;;1.92;;
85342;SDS011;75760;31.390;34.904;2024-01-30T05:32:58;6.67;;;1.80;;
85342;SDS011;75760;31.390;34.904;2024-01-30T05:35:24;8.25;;;2.10;;
85342;SDS011;75760;31.390;34.904;2024-01-30T05:37:50;8.93;;;1.80;;
85342;SDS011;75760;31.390;34.904;2024-01-30T05:40:15;9.25;;;1.90;;
85342;SDS011;75760;31.390;34.904;2024-01-30T05:42:41;7.03;;;2.15;;
85342;SDS011;75760;31.390;34.904;2024-01-30T05:45:07;9.30;;;2.10;;
85342;SDS011;75760;31.390;34.904;2024-01-30T05:47:33;5.55;;;1.80;;
85342;SDS011;75760;31.390;34.904;2024-01-30T05:50:02;7.80;;;2.50;;
85342;SDS011;75760;31.390;34.904;2024-01-30T05:52:28;4.93;;;1.77;;
85342;SDS011;75760;31.390;34.904;2024-01-30T05:54:54;7.15;;;2.30;;
85342;SDS011;75760;31.390;34.904;2024-01-30T05:57:19;5.67;;;1.90;;
85342;SDS011;75760;31.390;34.904;2024-01-30T05:59:45;8.50;;;2.20;;
85342;SDS011;75760;31.390;34.904;2024-01-30T06:02:13;8.38;;;2.40;;
85342;SDS011;75760;31.390;34.904;2024-01-30T06:04:38;8.93;;;2.30;;
85342;SDS011;75760;31.390;34.904;2024-01-30T06:07:04;10.02;;;2.47;;
85342;SDS011;75760;31.390;34.904;2024-01-30T06:09:31;6.95;;;2.10;;
85342;SDS011;75760;31.390;34.904;2024-01-30T06:11:57;9.40;;;2.57;;
85342;SDS011;75760;31.390;34.904;2024-01-30T06:14:23;8.55;;;1.98;;
85342;SDS011;75760;31.390;34.904;2024-01-30T06:16:49;5.68;;;2.08;;
85342;SDS011;75760;31.390;34.904;2024-01-30T06:19:15;7.73;;;2.10;;
85342;SDS011;75760;31.390;34.904;2024-01-30T06:21:41;11.20;;;1.95;;
85342;SDS011;75760;31.390;34.904;2024-01-30T06:24:06;5.83;;;2.00;;
85342;SDS011;75760;31.390;34.904;2024-01-30T06:26:32;9.50;;;2.38;;
85342;SDS011;75760;31.390;34.904;2024-01-30T06:28:59;10.55;;;2.15;;
85342;SDS011;75760;31.390;34.904;2024-01-30T06:31:24;8.80;;;1.80;;
85342;SDS011;75760;31.390;34.904;2024-01-30T06:33:50;8.17;;;2.10;;
85342;SDS011;75760;31.390;34.904;2024-01-30T06:36:16;7.00;;;1.90;;
85342;SDS011;75760;31.390;34.904;2024-01-30T06:38:41;5.63;;;1.85;;
85342;SDS011;75760;31.390;34.904;2024-01-30T06:41:07;7.80;;;1.60;;
85342;SDS011;75760;31.390;34.904;2024-01-30T06:43:32;9.40;;;1.90;;
85342;SDS011;75760;31.390;34.904;2024-01-30T06:45:58;4.15;;;1.92;;
85342;SDS011;75760;31.390;34.904;2024-01-30T06:48:24;5.15;;;1.80;;
85342;SDS011;75760;31.390;34.904;2024-01-30T06:50:53;5.83;;;2.50;;
85342;SDS011;75760;31.390;34.904;2024-01-30T06:53:19;5.95;;;1.70;;
85342;SDS011;75760;31.390;34.904;2024-01-30T06:55:45;7.78;;;1.90;;
85342;SDS011;75760;31.390;34.904;2024-01-30T06:58:10;6.70;;;1.60;;
85342;SDS011;75760;31.390;34.904;2024-01-30T07:00:36;8.95;;;1.75;;
85342;SDS011;75760;31.390;34.904;2024-01-30T07:03:02;6.40;;;1.87;;
85342;SDS011;75760;31.390;34.904;2024-01-30T07:05:27;4.25;;;1.13;;
85342;SDS011;75760;31.390;34.904;2024-01-30T07:07:53;5.30;;;1.33;;
85342;SDS011;75760;31.390;34.904;2024-01-30T07:10:18;6.33;;;1.20;;
85342;SDS011;75760;31.390;34.904;2024-01-30T07:12:44;4.93;;;1.30;;
85342;SDS011;75760;31.390;34.904;2024-01-30T07:15:10;5.00;;;1.57;;
85342;SDS011;75760;31.390;34.904;2024-01-30T07:17:35;5.17;;;1.40;;
85342;SDS011;75760;31.390;34.904;2024-01-30T07:20:01;5.50;;;1.10;;
85342;SDS011;75760;31.390;34.904;2024-01-30T07:22:29;8.40;;;1.75;;
85342;SDS011;75760;31.390;34.904;2024-01-30T07:24:55;6.20;;;1.38;;
85342;SDS011;75760;31.390;34.904;2024-01-30T07:27:21;4.93;;;1.10;;
85342;SDS011;75760;31.390;34.904;2024-01-30T07:29:46;3.95;;;1.40;;
85342;SDS011;75760;31.390;34.904;2024-01-30T07:32:12;5.80;;;1.53;;
85342;SDS011;75760;31.390;34.904;2024-01-30T07:34:38;8.60;;;1.67;;
85342;SDS011;75760;31.390;34.904;2024-01-30T07:37:03;5.80;;;1.40;;
85342;SDS011;75760;31.390;34.904;2024-01-30T07:39:29;4.83;;;1.27;;
85342;SDS011;75760;31.390;34.904;2024-01-30T07:41:55;6.72;;;1.58;;
85342;SDS011;75760;31.390;34.904;2024-01-30T07:44:20;6.60;;;1.80;;
85342;SDS011;75760;31.390;34.904;2024-01-30T07:46:46;8.27;;;1.92;;
85342;SDS011;75760;31.390;34.904;2024-01-30T07:49:12;7.63;;;1.70;;
85342;SDS011;75760;31.390;34.904;2024-01-30T07:51:39;6.47;;;1.85;;
85342;SDS011;75760;31.390;34.904;2024-01-30T07:54:05;6.35;;;1.45;;
85342;SDS011;75760;31.390;34.904;2024-01-30T07:56:31;4.93;;;1.40;;
85342;SDS011;75760;31.390;34.904;2024-01-30T07:58:56;6.20;;;1.20;;
85342;SDS011;75760;31.390;34.904;2024-01-30T08:01:22;5.40;;;1.60;;
85342;SDS011;75760;31.390;34.904;2024-01-30T08:03:48;6.90;;;1.42;;
85342;SDS011;75760;31.390;34.904;2024-01-30T08:06:13;5.17;;;1.23;;
85342;SDS011;75760;31.390;34.904;2024-01-30T08:08:39;5.97;;;1.30;;
85342;SDS011;75760;31.390;34.904;2024-01-30T08:11:05;5.53;;;1.40;;
85342;SDS011;75760;31.390;34.904;2024-01-30T08:13:30;5.65;;;1.40;;
85342;SDS011;75760;31.390;34.904;2024-01-30T08:15:56;4.93;;;1.60;;
85342;SDS011;75760;31.390;34.904;2024-01-30T08:18:21;5.43;;;1.60;;
85342;SDS011;75760;31.390;34.904;2024-01-30T08:20:47;4.25;;;1.40;;
85342;SDS011;75760;31.390;34.904;2024-01-30T08:23:14;5.78;;;1.48;;
85342;SDS011;75760;31.390;34.904;2024-01-30T08:25:39;4.33;;;1.60;;
85342;SDS011;75760;31.390;34.904;2024-01-30T08:28:05;8.45;;;1.52;;
85342;SDS011;75760;31.390;34.904;2024-01-30T08:30:32;4.00;;;1.30;;
85342;SDS011;75760;31.390;34.904;2024-01-30T08:32:58;3.13;;;1.45;;
85342;SDS011;75760;31.390;34.904;2024-01-30T08:35:23;3.50;;;1.37;;
85342;SDS011;75760;31.390;34.904;2024-01-30T08:37:49;4.35;;;1.55;;
85342;SDS011;75760;31.390;34.904;2024-01-30T08:40:14;4.20;;;1.47;;
85342;SDS011;75760;31.390;34.904;2024-01-30T08:42:40;7.32;;;1.60;;
85342;SDS011;75760;31.390;34.904;2024-01-30T08:45:06;6.60;;;1.30;;
85342;SDS011;75760;31.390;34.904;2024-01-30T08:47:32;6.13;;;1.50;;
85342;SDS011;75760;31.390;34.904;2024-01-30T08:49:58;3.15;;;1.10;;
85342;SDS011;75760;31.390;34.904;2024-01-30T08:52:24;4.97;;;1.37;;
85342;SDS011;75760;31.390;34.904;2024-01-30T08:54:50;5.07;;;1.40;;
85342;SDS011;75760;31.390;34.904;2024-01-30T08:57:15;8.47;;;1.40;;
85342;SDS011;75760;31.390;34.904;2024-01-30T08:59:41;4.07;;;1.30;;
85342;SDS011;75760;31.390;34.904;2024-01-30T09:02:09;5.67;;;1.17;;
85342;SDS011;75760;31.390;34.904;2024-01-30T09:04:35;7.43;;;1.60;;
85342;SDS011;75760;31.390;34.904;2024-01-30T09:07:00;4.73;;;1.00;;
85342;SDS011;75760;31.390;34.904;2024-01-30T09:09:26;6.35;;;1.60;;
85342;SDS011;75760;31.390;34.904;2024-01-30T09:11:52;5.37;;;1.37;;
85342;SDS011;75760;31.390;34.904;2024-01-30T09:14:17;7.55;;;1.40;;
85342;SDS011;75760;31.390;34.904;2024-01-30T09:16:43;7.77;;;1.67;;
85342;SDS011;75760;31.390;34.904;2024-01-30T09:19:08;5.30;;;1.07;;
85342;SDS011;75760;31.390;34.904;2024-01-30T09:21:34;5.50;;;1.00;;
85342;SDS011;75760;31.390;34.904;2024-01-30T09:24:03;8.27;;;1.97;;
85342;SDS011;75760;31.390;34.904;2024-01-30T09:26:29;7.68;;;1.45;;
85342;SDS011;75760;31.390;34.904;2024-01-30T09:28:54;4.70;;;1.60;;
85342;SDS011;75760;31.390;34.904;2024-01-30T09:31:20;7.82;;;2.00;;
85342;SDS011;75760;31.390;34.904;2024-01-30T09:33:45;7.97;;;2.77;;
85342;SDS011;75760;31.390;34.904;2024-01-30T09:36:13;6.15;;;1.92;;
85342;SDS011;75760;31.390;34.904;2024-01-30T09:38:40;5.30;;;1.85;;
85342;SDS011;75760;31.390;34.904;2024-01-30T09:41:08;6.55;;;1.70;;
85342;SDS011;75760;31.390;34.904;2024-01-30T09:43:38;8.60;;;1.20;;
85342;SDS011;75760;31.390;34.904;2024-01-30T09:46:05;8.32;;;1.40;;
85342;SDS011;75760;31.390;34.904;2024-01-30T09:48:32;8.00;;;1.30;;
85342;SDS011;75760;31.390;34.904;2024-01-30T09:50:58;7.30;;;1.10;;
85342;SDS011;75760;31.390;34.904;2024-01-30T09:53:24;11.10;;;1.40;;
85342;SDS011;75760;31.390;34.904;2024-01-30T09:55:51;12.40;;;2.08;;
85342;SDS011;75760;31.390;34.904;2024-01-30T09:58:16;9.30;;;1.35;;
85342;SDS011;75760;31.390;34.904;2024-01-30T10:00:42;5.47;;;1.17;;
85342;SDS011;75760;31.390;34.904;2024-01-30T10:03:08;7.20;;;1.17;;
85342;SDS011;75760;31.390;34.904;2024-01-30T10:05:35;7.32;;;1.02;;
85342;SDS011;75760;31.390;34.904;2024-01-30T10:08:05;8.57;;;1.35;;
85342;SDS011;75760;31.390;34.904;2024-01-30T10:10:33;10.90;;;1.60;;
85342;SDS011;75760;31.390;34.904;2024-01-30T10:13:00;12.90;;;1.83;;
85342;SDS011;75760;31.390;34.904;2024-01-30T10:15:26;7.70;;;1.60;;
85342;SDS011;75760;31.390;34.904;2024-01-30T10:17:53;11.30;;;1.70;;
85342;SDS011;75760;31.390;34.904;2024-01-30T10:20:19;9.60;;;1.30;;
85342;SDS011;75760;31.390;34.904;2024-01-30T10:22:47;11.93;;;1.52;;
85342;SDS011;75760;31.390;34.904;2024-01-30T10:25:14;12.32;;;1.33;;
85342;SDS011;75760;31.390;34.904;2024-01-30T10:27:40;11.37;;;1.30;;
85342;SDS011;75760;31.390;34.904;2024-01-30T10:30:06;9.13;;;1.77;;
85342;SDS011;75760;31.390;34.904;2024-01-30T10:32:33;13.52;;;1.38;;
85342;SDS011;75760;31.390;34.904;2024-01-30T10:34:58;16.57;;;2.20;;
85342;SDS011;75760;31.390;34.904;2024-01-30T10:37:25;18.88;;;1.92;;
85342;SDS011;75760;31.390;34.904;2024-01-30T10:39:51;12.43;;;1.95;;
85342;SDS011;75760;31.390;34.904;2024-01-30T10:42:20;15.37;;;1.67;;
85342;SDS011;75760;31.390;34.904;2024-01-30T10:45:02;14.85;;;1.98;;
85342;SDS011;75760;31.390;34.904;2024-01-30T10:47:59;15.40;;;1.60;;
85342;SDS011;75760;31.390;34.904;2024-01-30T10:50:25;14.60;;;1.90;;
85342;SDS011;75760;31.390;34.904;2024-01-30T10:52:51;10.57;;;1.52;;
85342;SDS011;75760;31.390;34.904;2024-01-30T10:55:17;13.07;;;1.50;;
85342;SDS011;75760;31.390;34.904;2024-01-30T10:57:43;14.15;;;1.33;;
85342;SDS011;75760;31.390;34.904;2024-01-30T11:00:13;16.75;;;1.52;;
85342;SDS011;75760;31.390;34.904;2024-01-30T11:02:44;18.25;;;1.58;;
85342;SDS011;75760;31.390;34.904;2024-01-30T11:05:11;10.87;;;1.80;;
85342;SDS011;75760;31.390;34.904;2024-01-30T11:07:38;17.85;;;1.40;;
85342;SDS011;75760;31.390;34.904;2024-01-30T11:10:11;10.60;;;1.40;;
85342;SDS011;75760;31.390;34.904;2024-01-30T11:12:40;20.23;;;2.22;;
85342;SDS011;75760;31.390;34.904;2024-01-30T11:15:06;23.00;;;2.03;;
85342;SDS011;75760;31.390;34.904;2024-01-30T11:20:21;14.13;;;2.10;;
85342;SDS011;75760;31.390;34.904;2024-01-30T11:22:51;16.92;;;2.08;;
85342;SDS011;75760;31.390;34.904;2024-01-30T11:25:19;16.48;;;1.60;;
85342;SDS011;75760;31.390;34.904;2024-01-30T11:27:46;12.32;;;1.75;;
85342;SDS011;75760;31.390;34.904;2024-01-30T11:30:29;17.10;;;2.13;;
85342;SDS011;75760;31.390;34.904;2024-01-30T11:35:32;15.98;;;2.33;;
85342;SDS011;75760;31.390;34.904;2024-01-30T11:37:59;14.07;;;1.60;;
85342;SDS011;75760;31.390;34.904;2024-01-30T11:40:29;22.67;;;1.77;;
85342;SDS011;75760;31.390;34.904;2024-01-30T11:42:55;9.07;;;1.73;;
85342;SDS011;75760;31.390;34.904;2024-01-30T11:45:23;20.13;;;1.80;;
85342;SDS011;75760;31.390;34.904;2024-01-30T11:47:48;12.55;;;1.92;;
85342;SDS011;75760;31.390;34.904;2024-01-30T11:50:14;15.57;;;2.23;;
85342;SDS011;75760;31.390;34.904;2024-01-30T11:52:40;18.73;;;1.88;;
85342;SDS011;75760;31.390;34.904;2024-01-30T11:55:07;10.20;;;2.00;;
85342;SDS011;75760;31.390;34.904;2024-01-30T11:57:33;11.30;;;1.20;;
85342;SDS011;75760;31.390;34.904;2024-01-30T12:00:01;8.35;;;1.80;;
85342;SDS011;75760;31.390;34.904;2024-01-30T12:02:28;13.70;;;1.53;;
85342;SDS011;75760;31.390;34.904;2024-01-30T12:04:54;17.98;;;1.70;;
85342;SDS011;75760;31.390;34.904;2024-01-30T12:07:20;20.13;;;2.40;;
85342;SDS011;75760;31.390;34.904;2024-01-30T12:09:52;20.60;;;1.75;;
85342;SDS011;75760;31.390;34.904;2024-01-30T12:12:20;16.40;;;2.40;;
85342;SDS011;75760;31.390;34.904;2024-01-30T12:14:49;13.63;;;1.60;;
85342;SDS011;75760;31.390;34.904;2024-01-30T12:17:28;15.50;;;1.55;;
85342;SDS011;75760;31.390;34.904;2024-01-30T12:20:08;13.68;;;1.95;;
85342;SDS011;75760;31.390;34.904;2024-01-30T12:22:40;14.10;;;1.63;;
85342;SDS011;75760;31.390;34.904;2024-01-30T12:25:13;17.98;;;1.92;;
85342;SDS011;75760;31.390;34.904;2024-01-30T12:27:47;15.77;;;1.55;;
85342;SDS011;75760;31.390;34.904;2024-01-30T12:30:15;7.55;;;1.77;;
85342;SDS011;75760;31.390;34.904;2024-01-30T12:32:43;16.73;;;1.90;;
85342;SDS011;75760;31.390;34.904;2024-01-30T12:35:10;5.17;;;1.60;;
85342;SDS011;75760;31.390;34.904;2024-01-30T12:37:37;10.30;;;1.42;;
85342;SDS011;75760;31.390;34.904;2024-01-30T12:40:03;14.70;;;1.75;;
85342;SDS011;75760;31.390;34.904;2024-01-30T12:42:31;8.70;;;1.10;;
85342;SDS011;75760;31.390;34.904;2024-01-30T12:44:57;6.50;;;1.30;;
85342;SDS011;75760;31.390;34.904;2024-01-30T12:47:23;10.43;;;1.63;;
85342;SDS011;75760;31.390;34.904;2024-01-30T12:49:49;9.88;;;1.35;;
85342;SDS011;75760;31.390;34.904;2024-01-30T12:52:18;15.93;;;1.70;;
85342;SDS011;75760;31.390;34.904;2024-01-30T13:07:16;8.38;;;1.20;;
85342;SDS011;75760;31.390;34.904;2024-01-30T13:09:42;10.63;;;1.03;;
85342;SDS011;75760;31.390;34.904;2024-01-30T13:12:08;11.75;;;1.20;;
85342;SDS011;75760;31.390;34.904;2024-01-30T13:14:33;10.87;;;1.23;;
85342;SDS011;75760;31.390;34.904;2024-01-30T13:16:59;6.13;;;1.10;;
85342;SDS011;75760;31.390;34.904;2024-01-30T13:19:25;8.47;;;1.20;;
85342;SDS011;75760;31.390;34.904;2024-01-30T13:21:50;4.05;;;0.80;;
85342;SDS011;75760;31.390;34.904;2024-01-30T13:24:16;5.83;;;1.17;;
85342;SDS011;75760;31.390;34.904;2024-01-30T13:26:46;7.07;;;1.42;;
85342;SDS011;75760;31.390;34.904;2024-01-30T13:29:13;4.30;;;0.98;;
85342;SDS011;75760;31.390;34.904;2024-01-30T13:31:38;5.93;;;1.23;;
85342;SDS011;75760;31.390;34.904;2024-01-30T13:34:09;6.13;;;1.38;;
85342;SDS011;75760;31.390;34.904;2024-01-30T13:36:34;11.83;;;1.20;;
85342;SDS011;75760;31.390;34.904;2024-01-30T13:39:00;5.20;;;0.90;;
85342;SDS011;75760;31.390;34.904;2024-01-30T13:41:26;5.07;;;1.00;;
85342;SDS011;75760;31.390;34.904;2024-01-30T13:43:51;6.63;;;1.37;;
85342;SDS011;75760;31.390;34.904;2024-01-30T13:46:17;8.00;;;1.10;;
85342;SDS011;75760;31.390;34.904;2024-01-30T13:48:43;5.47;;;1.13;;
85342;SDS011;75760;31.390;34.904;2024-01-30T13:51:08;15.70;;;1.17;;
85342;SDS011;75760;31.390;34.904;2024-01-30T13:53:34;7.00;;;1.20;;
85342;SDS011;75760;31.390;34.904;2024-01-30T13:56:00;4.78;;;1.33;;
85342;SDS011;75760;31.390;34.904;2024-01-30T13:58:25;9.80;;;1.67;;
85342;SDS011;75760;31.390;34.904;2024-01-30T14:00:51;8.43;;;1.05;;
85342;SDS011;75760;31.390;34.904;2024-01-30T14:03:16;10.03;;;1.27;;
85342;SDS011;75760;31.390;34.904;2024-01-30T14:05:42;6.90;;;1.10;;
85342;SDS011;75760;31.390;34.904;2024-01-30T14:08:09;8.75;;;1.10;;
85342;SDS011;75760;31.390;34.904;2024-01-30T14:10:34;10.63;;;1.50;;
85342;SDS011;75760;31.390;34.904;2024-01-30T14:13:00;9.37;;;0.80;;
85342;SDS011;75760;31.390;34.904;2024-01-30T14:15:26;5.00;;;1.20;;
85342;SDS011;75760;31.390;34.904;2024-01-30T14:17:51;4.70;;;0.97;;
85342;SDS011;75760;31.390;34.904;2024-01-30T14:20:17;4.80;;;1.10;;
85342;SDS011;75760;31.390;34.904;2024-01-30T14:22:42;14.32;;;1.58;;
85342;SDS011;75760;31.390;34.904;2024-01-30T14:25:08;9.17;;;1.77;;
85342;SDS011;75760;31.390;34.904;2024-01-30T14:27:34;7.80;;;1.40;;
85342;SDS011;75760;31.390;34.904;2024-01-30T14:30:00;7.47;;;0.98;;
85342;SDS011;75760;31.390;34.904;2024-01-30T14:32:26;7.43;;;1.00;;
85342;SDS011;75760;31.390;34.904;2024-01-30T14:34:51;6.80;;;1.30;;
85342;SDS011;75760;31.390;34.904;2024-01-30T14:37:20;9.98;;;2.20;;
85342;SDS011;75760;31.390;34.904;2024-01-30T14:39:47;6.55;;;1.23;;
85342;SDS011;75760;31.390;34.904;2024-01-30T14:42:13;9.43;;;1.23;;